Terminal Aerodrome Forecast
Issued by NWS Shreveport, LA

Home | Current Version | Previous Version | Text Only | Print | Product List | Glossary On
Versions: 1 2 3 4 5 6 7 8 9 10 11 12 13 14 15 16 17 18
000
FTUS44 KSHV 281757
TAFTXK
TAF
KTXK 281757Z 2818/2918 16007KT P6SM FEW110 BKN250
     FM290000 09005KT P6SM FEW250
     FM291200 12004KT P6SM SCT010
     FM291500 17008KT P6SM SCT015=

USA.gov is the U.S. government's official web portal to all federal, state and local government web resources and services.